createdAt,value
2019-03-04T00:00:23.796Z,953.34
2019-03-04T00:01:23.544Z,953.30
2019-03-04T00:02:23.495Z,953.27
2019-03-04T00:03:23.444Z,953.28
2019-03-04T00:04:23.399Z,953.29
2019-03-04T00:05:23.348Z,953.27
2019-03-04T00:06:23.298Z,953.28
2019-03-04T00:07:23.249Z,953.23
2019-03-04T00:08:23.197Z,953.26
2019-03-04T00:09:23.388Z,953.27
2019-03-04T00:10:23.120Z,953.23
2019-03-04T00:11:23.051Z,953.29
2019-03-04T00:12:23.003Z,953.23
2019-03-04T00:13:22.954Z,953.22
2019-03-04T00:14:22.903Z,953.21
2019-03-04T00:15:22.858Z,953.21
2019-03-04T00:16:23.025Z,953.17
2019-03-04T00:17:22.757Z,953.17
2019-03-04T00:18:22.718Z,953.18
2019-03-04T00:19:22.666Z,953.16
2019-03-04T00:20:22.610Z,953.14
2019-03-04T00:21:22.557Z,953.14
2019-03-04T00:22:22.512Z,953.15
2019-03-04T00:23:22.613Z,953.13
2019-03-04T00:24:22.416Z,953.12
2019-03-04T00:25:22.368Z,953.16
2019-03-04T00:26:22.314Z,953.14
2019-03-04T00:27:22.288Z,953.07
2019-03-04T00:28:22.220Z,953.07
2019-03-04T00:29:22.173Z,953.02
2019-03-04T00:30:22.334Z,953.06
2019-03-04T00:31:22.071Z,953.06
2019-03-04T00:32:22.019Z,953.04
2019-03-04T00:33:22.002Z,953.06
2019-03-04T00:34:21.921Z,953.08
2019-03-04T00:35:21.872Z,953.08
2019-03-04T00:36:21.824Z,953.09
2019-03-04T00:37:22.480Z,953.04
2019-03-04T00:38:21.769Z,953.04
2019-03-04T00:39:21.673Z,953.04
2019-03-04T00:40:21.730Z,953.05
2019-03-04T00:41:21.580Z,953.05
2019-03-04T00:42:21.735Z,953.02
2019-03-04T00:43:21.478Z,953.01
2019-03-04T00:44:21.429Z,952.98
2019-03-04T00:45:21.464Z,952.98
2019-03-04T00:46:21.329Z,952.92
2019-03-04T00:47:21.438Z,952.97
2019-03-04T00:48:21.231Z,952.92
2019-03-04T00:49:21.190Z,952.85
2019-03-04T00:50:21.134Z,952.88
2019-03-04T00:51:21.089Z,952.88
2019-03-04T00:52:21.242Z,952.87
2019-03-04T00:53:20.984Z,952.86
2019-03-04T00:54:20.937Z,952.86
2019-03-04T00:55:20.886Z,952.88
2019-03-04T00:56:20.840Z,952.86
2019-03-04T00:57:20.808Z,952.85
2019-03-04T00:58:20.746Z,952.83
2019-03-04T00:59:20.847Z,952.86
2019-03-04T01:00:20.641Z,952.79
2019-03-04T01:01:20.590Z,952.78
2019-03-04T01:02:20.553Z,952.82
2019-03-04T01:03:20.495Z,952.82
2019-03-04T01:04:20.464Z,952.82
2019-03-04T01:05:20.394Z,952.82
2019-03-04T01:06:20.554Z,952.79
2019-03-04T01:07:20.297Z,952.80
2019-03-04T01:08:20.252Z,952.75
2019-03-04T01:09:20.206Z,952.74
2019-03-04T01:10:20.150Z,952.78
2019-03-04T01:11:20.103Z,952.68
2019-03-04T01:12:20.051Z,952.65
2019-03-04T01:13:20.007Z,952.62
2019-03-04T01:14:19.953Z,952.63
2019-03-04T01:15:22.164Z,952.56
2019-03-04T01:16:19.858Z,952.57
2019-03-04T01:17:19.957Z,952.52
2019-03-04T01:18:19.764Z,952.48
2019-03-04T01:19:19.708Z,952.42
2019-03-04T01:20:19.660Z,952.40
2019-03-04T01:21:19.610Z,952.45
2019-03-04T01:22:19.580Z,952.47
2019-03-04T01:23:19.512Z,952.48
2019-03-04T01:24:19.666Z,952.51
2019-03-04T01:25:19.421Z,952.43
2019-03-04T01:26:19.365Z,952.41
2019-03-04T01:27:19.329Z,952.35
2019-03-04T01:28:19.270Z,952.33
2019-03-04T01:29:19.223Z,952.30
2019-03-04T01:30:19.169Z,952.31
2019-03-04T01:31:19.348Z,952.23
2019-03-04T01:32:19.074Z,952.31
2019-03-04T01:33:19.258Z,952.27
2019-03-04T01:34:18.972Z,952.16
2019-03-04T01:35:18.935Z,952.26
2019-03-04T01:36:18.889Z,952.25
2019-03-04T01:37:18.835Z,952.23
2019-03-04T01:38:18.775Z,952.19
2019-03-04T01:39:18.729Z,952.23
2019-03-04T01:40:18.876Z,952.17
2019-03-04T01:41:18.631Z,952.19
2019-03-04T01:42:18.583Z,952.17
2019-03-04T01:43:18.545Z,952.17
2019-03-04T01:44:18.484Z,952.11
2019-03-04T01:45:18.455Z,952.10
2019-03-04T01:46:18.387Z,952.07
2019-03-04T01:47:18.566Z,952.06
2019-03-04T01:48:18.287Z,952.06
2019-03-04T01:49:18.246Z,952.05
2019-03-04T01:50:18.199Z,951.96
2019-03-04T01:51:18.144Z,951.99
2019-03-04T01:52:18.110Z,951.96
2019-03-04T01:53:18.040Z,951.94
2019-03-04T01:54:18.179Z,951.92
2019-03-04T01:55:17.943Z,951.88
2019-03-04T01:56:17.899Z,951.89
2019-03-04T01:57:17.854Z,951.87
2019-03-04T01:58:17.800Z,951.86
2019-03-04T01:59:17.763Z,951.84
2019-03-04T02:00:17.699Z,951.84
2019-03-04T02:01:17.857Z,951.78
2019-03-04T02:02:17.598Z,951.76
2019-03-04T02:03:17.786Z,951.77
2019-03-04T02:04:17.499Z,951.76
2019-03-04T02:05:17.449Z,951.72
2019-03-04T02:06:17.405Z,951.70
2019-03-04T02:07:17.351Z,951.64
2019-03-04T02:08:17.301Z,951.62
2019-03-04T02:09:17.259Z,951.55
2019-03-04T02:10:17.203Z,951.51
2019-03-04T02:11:17.154Z,951.47
2019-03-04T02:12:17.300Z,951.54
2019-03-04T02:13:17.057Z,951.51
2019-03-04T02:14:17.006Z,951.51
2019-03-04T02:15:17.040Z,951.46
2019-03-04T02:16:16.911Z,951.44
2019-03-04T02:17:16.857Z,951.42
2019-03-04T02:18:16.815Z,951.43
2019-03-04T02:19:16.792Z,951.40
2019-03-04T02:20:16.712Z,951.40
2019-03-04T02:21:16.894Z,951.40
2019-03-04T02:22:16.610Z,951.37
2019-03-04T02:23:16.561Z,951.36
2019-03-04T02:24:16.587Z,951.34
2019-03-04T02:25:16.462Z,951.32
2019-03-04T02:26:16.412Z,951.29
2019-03-04T02:27:16.364Z,951.32
2019-03-04T02:28:16.314Z,951.34
2019-03-04T02:29:16.270Z,951.27
2019-03-04T02:30:16.407Z,951.25
2019-03-04T02:31:16.167Z,951.22
2019-03-04T02:32:16.131Z,951.18
2019-03-04T02:33:16.082Z,951.15
2019-03-04T02:34:16.018Z,951.07
2019-03-04T02:35:15.971Z,951.10
2019-03-04T02:36:15.918Z,951.06
2019-03-04T02:37:16.098Z,950.99
2019-03-04T02:38:15.826Z,951.02
2019-03-04T02:39:15.782Z,951.00
2019-03-04T02:40:15.738Z,950.99
2019-03-04T02:41:15.670Z,950.97
2019-03-04T02:42:15.623Z,950.97
2019-03-04T02:43:15.574Z,950.95
2019-03-04T02:44:15.707Z,950.92
2019-03-04T02:45:15.471Z,950.91
2019-03-04T02:46:15.421Z,950.87
2019-03-04T02:47:15.389Z,950.87
2019-03-04T02:48:15.325Z,950.91
2019-03-04T02:49:15.278Z,950.86
2019-03-04T02:50:15.223Z,950.85
2019-03-04T02:51:15.173Z,950.82
2019-03-04T02:52:15.126Z,950.80
2019-03-04T02:53:15.323Z,950.78
2019-03-04T02:54:15.022Z,950.77
2019-03-04T02:55:14.975Z,950.77
2019-03-04T02:56:14.940Z,950.69
2019-03-04T02:57:14.873Z,950.64
2019-03-04T02:58:14.831Z,950.65
2019-03-04T02:59:14.778Z,950.62
2019-03-04T03:00:14.726Z,950.60
2019-03-04T03:01:14.675Z,950.57
2019-03-04T03:02:14.825Z,950.52
2019-03-04T03:03:14.575Z,950.52
2019-03-04T03:04:14.524Z,950.47
2019-03-04T03:05:14.481Z,950.45
2019-03-04T03:06:14.424Z,950.42
2019-03-04T03:07:14.376Z,950.36
2019-03-04T03:08:14.325Z,950.37
2019-03-04T03:09:14.511Z,950.40
2019-03-04T03:10:14.283Z,950.36
2019-03-04T03:11:14.178Z,950.28
2019-03-04T03:12:14.143Z,950.24
2019-03-04T03:13:14.073Z,950.37
2019-03-04T03:14:14.035Z,950.31
2019-03-04T03:15:13.981Z,950.25
2019-03-04T03:16:14.454Z,950.31
2019-03-04T03:17:13.893Z,950.28
2019-03-04T03:18:13.832Z,950.15
2019-03-04T03:19:13.790Z,950.13
2019-03-04T03:20:13.721Z,950.26
2019-03-04T03:21:13.672Z,950.28
2019-03-04T03:22:13.631Z,950.20
2019-03-04T03:23:13.573Z,950.13
2019-03-04T03:24:13.520Z,950.09
2019-03-04T03:25:13.472Z,950.12
2019-03-04T03:26:13.446Z,950.12
2019-03-04T03:27:13.369Z,950.11
2019-03-04T03:28:13.322Z,950.14
2019-03-04T03:29:13.276Z,950.06
2019-03-04T03:30:13.246Z,949.99
2019-03-04T03:31:13.169Z,950.05
2019-03-04T03:32:13.146Z,950.10
2019-03-04T03:33:13.084Z,950.12
2019-03-04T03:34:13.020Z,950.17
2019-03-04T03:35:12.972Z,950.04
2019-03-04T03:36:12.921Z,949.98
2019-03-04T03:37:12.867Z,949.95
2019-03-04T03:38:12.820Z,950.06
2019-03-04T03:39:12.762Z,950.11
2019-03-04T03:40:12.713Z,950.06
2019-03-04T03:41:12.662Z,950.07
2019-03-04T03:42:12.620Z,950.12
2019-03-04T03:43:12.562Z,950.00
2019-03-04T03:44:12.512Z,950.00
2019-03-04T03:45:12.459Z,949.94
2019-03-04T03:46:12.409Z,949.80
2019-03-04T03:47:12.360Z,949.85
2019-03-04T03:48:12.311Z,949.97
2019-03-04T03:49:12.267Z,949.97
2019-03-04T03:50:12.219Z,949.68
2019-03-04T03:51:12.154Z,949.58
2019-03-04T03:52:12.106Z,949.63
2019-03-04T03:53:12.055Z,949.69
2019-03-04T03:54:12.079Z,949.67
2019-03-04T03:55:11.961Z,949.47
2019-03-04T03:56:11.914Z,949.43
2019-03-04T03:57:11.853Z,949.65
2019-03-04T03:58:11.804Z,949.77
2019-03-04T03:59:11.751Z,949.69
2019-03-04T04:00:11.700Z,949.48
2019-03-04T04:01:11.646Z,949.34
2019-03-04T04:02:11.595Z,949.37
2019-03-04T04:03:11.542Z,949.61
2019-03-04T04:04:11.496Z,949.67
2019-03-04T04:05:11.444Z,949.49
2019-03-04T04:06:11.392Z,949.42
2019-03-04T04:07:11.443Z,949.33
2019-03-04T04:08:11.292Z,949.28
2019-03-04T04:09:11.249Z,949.40
2019-03-04T04:10:11.195Z,949.43
2019-03-04T04:11:11.157Z,949.41
2019-03-04T04:12:11.095Z,949.37
2019-03-04T04:13:11.036Z,949.33
2019-03-04T04:14:11.080Z,949.37
2019-03-04T04:15:10.935Z,949.37
2019-03-04T04:16:11.069Z,949.28
2019-03-04T04:17:10.834Z,949.22
2019-03-04T04:18:10.792Z,949.31
2019-03-04T04:19:10.805Z,949.35
2019-03-04T04:20:10.683Z,949.13
2019-03-04T04:21:10.882Z,948.96
2019-03-04T04:22:10.579Z,948.88
2019-03-04T04:23:10.531Z,948.95
2019-03-04T04:24:10.549Z,949.03
2019-03-04T04:25:10.428Z,949.00
2019-03-04T04:26:10.579Z,948.96
2019-03-04T04:27:10.324Z,948.89
2019-03-04T04:28:10.272Z,948.85
2019-03-04T04:29:10.230Z,948.84
2019-03-04T04:30:10.174Z,948.86
2019-03-04T04:31:10.245Z,948.72
2019-03-04T04:32:10.075Z,948.77
2019-03-04T04:33:10.189Z,948.73
2019-03-04T04:34:09.968Z,948.70
2019-03-04T04:35:09.922Z,948.70
2019-03-04T04:36:09.866Z,948.69
2019-03-04T04:37:09.815Z,948.60
2019-03-04T04:38:09.770Z,948.75
2019-03-04T04:39:09.714Z,948.70
2019-03-04T04:40:09.887Z,948.72
2019-03-04T04:41:09.610Z,948.72
2019-03-04T04:42:09.559Z,948.73
2019-03-04T04:43:09.508Z,948.72
2019-03-04T04:44:09.458Z,948.74
2019-03-04T04:45:09.419Z,948.79
2019-03-04T04:46:09.358Z,948.75
2019-03-04T04:47:09.497Z,948.68
2019-03-04T04:48:09.260Z,948.77
2019-03-04T04:49:09.201Z,948.83
2019-03-04T04:50:09.153Z,948.84
2019-03-04T04:51:09.102Z,948.87
2019-03-04T04:52:09.060Z,948.85
2019-03-04T04:53:09.003Z,948.82
2019-03-04T04:54:09.192Z,948.85
2019-03-04T04:55:08.897Z,948.76
2019-03-04T04:56:08.846Z,948.75
2019-03-04T04:57:08.791Z,948.70
2019-03-04T04:58:08.745Z,948.59
2019-03-04T04:59:08.703Z,948.57
2019-03-04T05:00:08.641Z,948.63
2019-03-04T05:01:08.770Z,948.58
2019-03-04T05:02:08.539Z,948.73
2019-03-04T05:03:08.690Z,948.64
2019-03-04T05:04:08.436Z,948.54
2019-03-04T05:05:08.387Z,948.71
2019-03-04T05:06:08.335Z,948.65
2019-03-04T05:07:08.282Z,948.62
2019-03-04T05:08:08.238Z,948.64
2019-03-04T05:09:08.179Z,948.59
2019-03-04T05:10:08.336Z,948.65
2019-03-04T05:11:08.079Z,948.63
2019-03-04T05:12:08.028Z,948.64
2019-03-04T05:13:07.976Z,948.65
2019-03-04T05:14:07.928Z,948.59
2019-03-04T05:15:07.898Z,948.46
2019-03-04T05:16:07.822Z,948.42
2019-03-04T05:17:08.016Z,948.48
2019-03-04T05:18:07.725Z,948.55
2019-03-04T05:19:07.667Z,948.45
2019-03-04T05:20:07.623Z,948.46
2019-03-04T05:21:07.564Z,948.41
2019-03-04T05:22:07.544Z,948.40
2019-03-04T05:23:07.466Z,948.45
2019-03-04T05:24:07.603Z,948.44
2019-03-04T05:25:07.360Z,948.41
2019-03-04T05:26:07.309Z,948.32
2019-03-04T05:27:07.257Z,948.30
2019-03-04T05:28:07.213Z,948.26
2019-03-04T05:29:07.162Z,948.21
2019-03-04T05:30:07.104Z,948.18
2019-03-04T05:31:07.195Z,948.19
2019-03-04T05:32:07.001Z,948.16
2019-03-04T05:33:07.114Z,948.17
2019-03-04T05:34:06.901Z,948.15
2019-03-04T05:35:06.845Z,948.14
2019-03-04T05:36:06.796Z,948.14
2019-03-04T05:37:06.743Z,948.07
2019-03-04T05:38:06.700Z,947.97
2019-03-04T05:39:06.641Z,947.95
2019-03-04T05:40:06.827Z,947.83
2019-03-04T05:41:06.536Z,947.85
2019-03-04T05:42:06.484Z,947.87
2019-03-04T05:43:06.433Z,947.88
2019-03-04T05:44:06.382Z,947.88
2019-03-04T05:45:06.329Z,947.86
2019-03-04T05:46:06.277Z,947.83
2019-03-04T05:47:06.428Z,947.82
2019-03-04T05:48:07.733Z,947.75
2019-03-04T05:49:06.131Z,947.76
2019-03-04T05:50:06.078Z,947.77
2019-03-04T05:51:06.020Z,947.76
2019-03-04T05:52:05.969Z,947.79
2019-03-04T05:53:05.918Z,947.72
2019-03-04T05:54:06.039Z,947.70
2019-03-04T05:55:05.812Z,947.65
2019-03-04T05:56:05.763Z,947.65
2019-03-04T05:57:05.751Z,947.60
2019-03-04T05:58:05.665Z,947.62
2019-03-04T05:59:05.608Z,947.59
2019-03-04T06:00:05.558Z,947.57
2019-03-04T06:01:05.503Z,947.50
2019-03-04T06:02:05.451Z,947.49
2019-03-04T06:03:05.641Z,947.48
2019-03-04T06:04:05.348Z,947.45
2019-03-04T06:05:05.295Z,947.49
2019-03-04T06:06:05.277Z,947.45
2019-03-04T06:07:05.192Z,947.45
2019-03-04T06:08:05.141Z,947.40
2019-03-04T06:09:05.093Z,947.39
2019-03-04T06:10:05.038Z,947.49
2019-03-04T06:11:04.989Z,947.47
2019-03-04T06:12:05.150Z,947.47
2019-03-04T06:13:04.882Z,947.42
2019-03-04T06:14:04.830Z,947.35
2019-03-04T06:15:04.826Z,947.34
2019-03-04T06:16:04.726Z,947.31
2019-03-04T06:17:04.677Z,947.26
2019-03-04T06:18:04.628Z,947.18
2019-03-04T06:19:04.570Z,947.13
2019-03-04T06:20:04.522Z,947.13
2019-03-04T06:21:04.660Z,947.11
2019-03-04T06:22:04.416Z,947.09
2019-03-04T06:23:04.361Z,946.99
2019-03-04T06:24:04.373Z,947.00
2019-03-04T06:25:07.340Z,946.99
2019-03-04T06:26:04.205Z,946.96
2019-03-04T06:27:04.153Z,946.97
2019-03-04T06:28:04.124Z,946.98
2019-03-04T06:29:04.078Z,946.91
2019-03-04T06:30:04.170Z,946.97
2019-03-04T06:31:03.945Z,946.92
2019-03-04T06:32:03.896Z,946.95
2019-03-04T06:33:03.842Z,946.84
2019-03-04T06:34:03.793Z,946.84
2019-03-04T06:35:03.739Z,946.79
2019-03-04T06:36:03.687Z,946.78
2019-03-04T06:37:03.653Z,946.73
2019-03-04T06:38:03.589Z,946.72
2019-03-04T06:39:03.757Z,946.69
2019-03-04T06:40:03.480Z,946.67
2019-03-04T06:41:03.426Z,946.56
2019-03-04T06:42:03.469Z,946.65
2019-03-04T06:43:03.327Z,946.59
2019-03-04T06:44:03.274Z,946.55
2019-03-04T06:45:03.224Z,946.54
2019-03-04T06:46:03.189Z,946.55
2019-03-04T06:47:03.119Z,946.56
2019-03-04T06:48:03.266Z,946.56
2019-03-04T06:49:03.022Z,946.57
2019-03-04T06:50:02.964Z,946.53
2019-03-04T06:51:02.912Z,946.54
2019-03-04T06:52:02.862Z,946.51
2019-03-04T06:53:02.809Z,946.44
2019-03-04T06:54:02.759Z,946.41
2019-03-04T06:55:02.723Z,946.41
2019-03-04T06:56:02.654Z,946.34
2019-03-04T06:57:02.765Z,946.33
2019-03-04T06:58:02.556Z,946.29
2019-03-04T06:59:02.499Z,946.31
2019-03-04T07:00:02.567Z,946.31
2019-03-04T07:01:02.396Z,946.22
2019-03-04T07:02:02.346Z,946.25
2019-03-04T07:03:02.294Z,946.24
2019-03-04T07:04:02.263Z,946.24
2019-03-04T07:05:02.194Z,946.27
2019-03-04T07:06:02.369Z,946.26
2019-03-04T07:07:02.089Z,946.19
2019-03-04T07:08:02.039Z,946.17
2019-03-04T07:09:01.994Z,946.12
2019-03-04T07:10:01.938Z,946.14
2019-03-04T07:11:01.886Z,946.10
2019-03-04T07:12:01.839Z,946.16
2019-03-04T07:13:01.802Z,946.12
2019-03-04T07:14:01.735Z,946.13
2019-03-04T07:15:01.869Z,946.13
2019-03-04T07:16:01.632Z,946.15
2019-03-04T07:17:01.581Z,946.14
2019-03-04T07:18:01.540Z,946.13
2019-03-04T07:19:01.484Z,946.18
2019-03-04T07:20:01.432Z,946.20
2019-03-04T07:21:01.376Z,946.09
2019-03-04T07:22:01.327Z,945.98
2019-03-04T07:23:01.279Z,946.09
2019-03-04T07:24:01.244Z,946.06
2019-03-04T07:25:01.175Z,946.02
2019-03-04T07:26:01.281Z,946.01
2019-03-04T07:27:01.075Z,946.06
2019-03-04T07:28:01.026Z,946.05
2019-03-04T07:29:00.985Z,946.06
2019-03-04T07:30:00.924Z,946.11
2019-03-04T07:31:00.876Z,946.10
2019-03-04T07:32:00.832Z,946.07
2019-03-04T07:33:00.795Z,946.09
2019-03-04T07:34:00.725Z,946.16
2019-03-04T07:35:00.904Z,946.10
2019-03-04T07:36:00.625Z,946.10
2019-03-04T07:37:00.577Z,945.99
2019-03-04T07:38:00.532Z,946.01
2019-03-04T07:39:00.474Z,946.06
2019-03-04T07:40:00.426Z,946.06
2019-03-04T07:41:00.376Z,946.00
2019-03-04T07:42:00.343Z,945.98
2019-03-04T07:43:00.277Z,945.95
2019-03-04T07:44:00.400Z,945.88
2019-03-04T07:45:00.322Z,945.89
2019-03-04T07:46:00.137Z,945.92
2019-03-04T07:47:00.117Z,945.91
2019-03-04T07:48:00.346Z,945.92
2019-03-04T07:48:59.992Z,945.94
2019-03-04T07:49:59.932Z,945.87
2019-03-04T07:50:59.900Z,945.93
2019-03-04T07:51:59.832Z,945.90
2019-03-04T07:53:00.012Z,945.91
2019-03-04T07:53:59.740Z,945.89
2019-03-04T07:54:59.687Z,945.83
2019-03-04T07:55:59.670Z,945.85
2019-03-04T07:56:59.587Z,945.92
2019-03-04T07:57:59.544Z,945.97
2019-03-04T07:58:59.492Z,946.03
2019-03-04T07:59:59.442Z,946.03
2019-03-04T08:00:59.392Z,946.03
2019-03-04T08:01:59.359Z,945.97
2019-03-04T08:02:59.295Z,946.05
2019-03-04T08:03:59.412Z,946.09
2019-03-04T08:04:59.198Z,946.06
2019-03-04T08:05:59.152Z,946.09
2019-03-04T08:06:59.126Z,946.15
2019-03-04T08:07:59.054Z,946.20
2019-03-04T08:08:59.009Z,946.28
2019-03-04T08:09:58.956Z,946.21
2019-03-04T08:11:01.169Z,946.29
2019-03-04T08:11:58.858Z,946.23
2019-03-04T08:12:59.025Z,946.33
2019-03-04T08:13:58.763Z,946.34
2019-03-04T08:14:58.713Z,946.34
2019-03-04T08:15:58.776Z,946.41
2019-03-04T08:16:58.616Z,946.43
2019-03-04T08:17:58.578Z,946.46
2019-03-04T08:18:58.523Z,946.51
2019-03-04T08:19:58.473Z,946.66
2019-03-04T08:20:58.425Z,946.54
2019-03-04T08:21:58.377Z,946.70
2019-03-04T08:22:58.331Z,946.71
2019-03-04T08:23:58.305Z,946.55
2019-03-04T08:24:58.237Z,946.45
2019-03-04T08:25:58.420Z,946.46
2019-03-04T08:26:58.141Z,946.62
2019-03-04T08:27:58.095Z,946.85
2019-03-04T08:28:58.750Z,946.76
2019-03-04T08:29:57.998Z,946.75
2019-03-04T08:30:57.948Z,946.75
2019-03-04T08:31:57.902Z,946.87
2019-03-04T08:32:57.872Z,947.09
2019-03-04T08:33:57.807Z,947.20
2019-03-04T08:34:57.932Z,947.10
2019-03-04T08:35:57.712Z,947.17
2019-03-04T08:36:57.663Z,947.27
2019-03-04T08:37:57.629Z,946.98
2019-03-04T08:38:57.568Z,947.24
2019-03-04T08:39:57.523Z,947.21
2019-03-04T08:40:57.482Z,947.19
2019-03-04T08:41:57.447Z,947.34
2019-03-04T08:42:57.381Z,947.36
2019-03-04T08:43:57.548Z,947.35
2019-03-04T08:44:57.286Z,947.38
2019-03-04T08:45:57.240Z,947.51
2019-03-04T08:46:57.249Z,947.40
2019-03-04T08:47:57.149Z,947.51
2019-03-04T08:48:57.109Z,947.50
2019-03-04T08:49:57.055Z,947.40
2019-03-04T08:50:57.016Z,947.60
2019-03-04T08:51:56.962Z,947.40
2019-03-04T08:52:57.147Z,947.57
2019-03-04T08:53:56.867Z,947.38
2019-03-04T08:54:56.820Z,947.39
2019-03-04T08:55:56.797Z,947.48
2019-03-04T08:57:03.697Z,947.36
2019-03-04T08:57:56.687Z,947.36
2019-03-04T08:58:56.635Z,947.22
2019-03-04T08:59:56.620Z,947.22
2019-03-04T09:00:56.545Z,947.35
2019-03-04T09:01:56.515Z,947.40
2019-03-04T09:02:56.450Z,947.39
2019-03-04T09:03:56.642Z,947.32
2019-03-04T09:04:56.362Z,947.23
2019-03-04T09:05:56.315Z,947.31
2019-03-04T09:06:56.277Z,947.17
2019-03-04T09:07:56.223Z,947.14
2019-03-04T09:08:56.183Z,947.24
2019-03-04T09:09:56.130Z,947.13
2019-03-04T09:10:56.102Z,947.09
2019-03-04T09:11:56.037Z,946.96
2019-03-04T09:12:56.161Z,947.06
2019-03-04T09:13:55.946Z,946.96
2019-03-04T09:14:55.901Z,946.99
2019-03-04T09:15:55.907Z,946.94
2019-03-04T09:16:55.809Z,946.80
2019-03-04T09:17:55.769Z,946.82
2019-03-04T09:18:55.786Z,946.97
2019-03-04T09:19:55.672Z,946.70
2019-03-04T09:20:55.626Z,946.74
2019-03-04T09:21:55.639Z,946.68
2019-03-04T09:22:55.531Z,946.60
2019-03-04T09:23:55.672Z,946.89
2019-03-04T09:24:55.440Z,946.76
2019-03-04T09:25:55.393Z,946.63
2019-03-04T09:26:55.368Z,946.70
2019-03-04T09:27:55.303Z,946.82
2019-03-04T09:28:55.259Z,946.86
2019-03-04T09:29:55.209Z,946.96
2019-03-04T09:30:55.181Z,946.95
2019-03-04T09:31:55.118Z,946.87
2019-03-04T09:32:55.268Z,946.87
2019-03-04T09:33:55.030Z,946.77
2019-03-04T09:34:54.982Z,946.73
2019-03-04T09:35:55.018Z,946.73
2019-03-04T09:36:54.887Z,946.82
2019-03-04T09:37:54.845Z,946.85
2019-03-04T09:38:54.793Z,946.93
2019-03-04T09:39:54.747Z,946.91
2019-03-04T09:40:54.701Z,946.92
2019-03-04T09:41:54.674Z,947.03
2019-03-04T09:42:54.608Z,947.10
2019-03-04T09:43:54.768Z,947.05
2019-03-04T09:44:54.514Z,947.09
2019-03-04T09:45:54.468Z,947.08
2019-03-04T09:46:54.478Z,947.26
2019-03-04T09:47:54.377Z,947.08
2019-03-04T09:48:54.339Z,947.16
2019-03-04T09:49:54.282Z,947.28
2019-03-04T09:50:54.236Z,947.36
2019-03-04T09:51:54.195Z,947.28
2019-03-04T09:52:54.390Z,947.30
2019-03-04T09:53:54.095Z,947.34
2019-03-04T09:54:54.068Z,947.39
2019-03-04T09:55:54.007Z,947.37
2019-03-04T09:56:53.958Z,947.29
2019-03-04T09:57:53.917Z,947.37
2019-03-04T09:58:53.873Z,947.49
2019-03-04T09:59:53.839Z,947.36
2019-03-04T10:00:53.774Z,947.38
2019-03-04T10:01:53.894Z,947.36
2019-03-04T10:02:53.681Z,947.43
2019-03-04T10:03:53.636Z,947.37
2019-03-04T10:04:53.586Z,947.45
2019-03-04T10:05:53.542Z,947.38
2019-03-04T10:06:53.493Z,947.35
2019-03-04T10:07:53.448Z,947.42
2019-03-04T10:08:53.421Z,947.43
2019-03-04T10:09:53.357Z,947.44
2019-03-04T10:10:53.499Z,947.38
2019-03-04T10:11:53.262Z,947.50
2019-03-04T10:12:53.215Z,947.51
2019-03-04T10:13:53.168Z,947.61
2019-03-04T10:14:53.121Z,947.56
2019-03-04T10:15:53.076Z,947.67
2019-03-04T10:16:53.028Z,947.61
2019-03-04T10:17:53.004Z,947.58
2019-03-04T10:18:52.934Z,947.65
2019-03-04T10:19:53.090Z,947.68
2019-03-04T10:20:52.840Z,947.82
2019-03-04T10:21:52.793Z,947.81
2019-03-04T10:22:52.778Z,947.82
2019-03-04T10:23:52.700Z,947.89
2019-03-04T10:24:52.654Z,947.92
2019-03-04T10:25:52.606Z,947.88
2019-03-04T10:26:52.577Z,947.91
2019-03-04T10:27:52.513Z,947.95
2019-03-04T10:28:52.491Z,947.95
2019-03-04T10:29:52.415Z,948.01
2019-03-04T10:30:52.619Z,947.96
2019-03-04T10:31:52.324Z,948.08
2019-03-04T10:32:52.277Z,947.98
2019-03-04T10:33:52.340Z,948.02
2019-03-04T10:34:52.186Z,948.09
2019-03-04T10:35:52.136Z,948.05
2019-03-04T10:36:52.089Z,948.07
2019-03-04T10:37:52.060Z,948.08
2019-03-04T10:38:51.993Z,948.01
2019-03-04T10:39:51.968Z,948.10
2019-03-04T10:40:51.900Z,948.13
2019-03-04T10:41:52.017Z,948.00
2019-03-04T10:42:51.809Z,948.01
2019-03-04T10:43:51.761Z,948.12
2019-03-04T10:44:51.713Z,948.07
2019-03-04T10:45:51.705Z,948.10
2019-03-04T10:46:51.620Z,947.93
2019-03-04T10:47:51.573Z,948.10
2019-03-04T10:48:51.531Z,948.22
2019-03-04T10:49:51.477Z,947.93
2019-03-04T10:50:51.628Z,948.13
2019-03-04T10:51:51.383Z,948.07
2019-03-04T10:52:51.335Z,948.08
2019-03-04T10:53:51.347Z,948.29
2019-03-04T10:54:51.243Z,948.25
2019-03-04T10:55:51.192Z,948.40
2019-03-04T10:56:51.144Z,948.33
2019-03-04T10:57:51.122Z,948.47
2019-03-04T10:58:51.057Z,948.65
2019-03-04T10:59:51.225Z,948.63
2019-03-04T11:00:50.954Z,948.46
2019-03-04T11:01:50.907Z,948.81
2019-03-04T11:02:50.897Z,948.75
2019-03-04T11:03:50.813Z,948.66
2019-03-04T11:04:50.766Z,948.75
2019-03-04T11:05:50.715Z,948.77
2019-03-04T11:06:50.687Z,948.90
2019-03-04T11:07:50.622Z,948.74
2019-03-04T11:08:50.638Z,948.79
2019-03-04T11:09:50.525Z,948.86
2019-03-04T11:10:50.619Z,948.84
2019-03-04T11:11:50.432Z,948.93
2019-03-04T11:12:50.381Z,948.88
2019-03-04T11:13:50.355Z,948.59
2019-03-04T11:14:50.285Z,949.13
2019-03-04T11:15:50.237Z,949.04
2019-03-04T11:16:50.186Z,949.07
2019-03-04T11:17:50.168Z,949.13
2019-03-04T11:18:50.130Z,949.28
2019-03-04T11:19:50.233Z,948.86
2019-03-04T11:20:49.996Z,949.24
2019-03-04T11:21:49.946Z,949.05
2019-03-04T11:22:50.006Z,949.24
2019-03-04T11:23:49.849Z,949.34
2019-03-04T11:24:49.798Z,949.34
2019-03-04T11:25:49.750Z,949.32
2019-03-04T11:26:49.721Z,949.29
2019-03-04T11:27:49.654Z,949.33
2019-03-04T11:28:49.629Z,949.47
2019-03-04T11:29:49.557Z,949.29
2019-03-04T11:30:49.739Z,949.34
2019-03-04T11:31:49.457Z,949.19
2019-03-04T11:32:49.408Z,949.38
2019-03-04T11:33:49.466Z,949.49
2019-03-04T11:34:49.310Z,949.42
2019-03-04T11:35:49.261Z,949.51
2019-03-04T11:36:49.212Z,949.52
2019-03-04T11:37:49.167Z,949.42
2019-03-04T11:38:49.114Z,949.44
2019-03-04T11:39:49.083Z,949.24
2019-03-04T11:40:49.015Z,949.36
2019-03-04T11:41:49.145Z,949.26
2019-03-04T11:42:50.515Z,949.21
2019-03-04T11:43:48.869Z,949.19
2019-03-04T11:44:48.927Z,949.14
2019-03-04T11:45:48.768Z,949.09
2019-03-04T11:46:48.719Z,949.05
2019-03-04T11:47:48.670Z,948.96
2019-03-04T11:48:48.628Z,949.06
2019-03-04T11:49:48.570Z,948.67
2019-03-04T11:50:48.543Z,948.88
2019-03-04T11:51:48.470Z,948.74
2019-03-04T11:52:48.661Z,948.81
2019-03-04T11:53:48.376Z,948.63
2019-03-04T11:54:48.330Z,948.78
2019-03-04T11:55:48.386Z,948.69
2019-03-04T11:56:48.221Z,948.68
2019-03-04T11:57:48.179Z,948.84
2019-03-04T11:58:48.122Z,948.81
2019-03-04T11:59:48.077Z,948.86
2019-03-04T12:00:48.031Z,948.86
2019-03-04T12:01:47.994Z,949.10
2019-03-04T12:02:47.926Z,948.95
2019-03-04T12:03:48.077Z,948.79
2019-03-04T12:04:47.826Z,948.69
2019-03-04T12:05:47.780Z,948.90
2019-03-04T12:06:47.728Z,948.97
2019-03-04T12:07:47.680Z,948.56
2019-03-04T12:08:47.639Z,948.47
2019-03-04T12:09:47.581Z,948.77
2019-03-04T12:10:47.548Z,948.85
2019-03-04T12:11:47.482Z,948.78
2019-03-04T12:12:47.666Z,948.75
2019-03-04T12:13:47.383Z,948.84
2019-03-04T12:14:47.332Z,948.90
2019-03-04T12:15:47.393Z,948.53
2019-03-04T12:16:47.230Z,948.78
2019-03-04T12:17:47.191Z,948.70
2019-03-04T12:18:47.212Z,948.95
2019-03-04T12:19:47.085Z,948.87
2019-03-04T12:20:47.036Z,948.78
2019-03-04T12:21:46.985Z,948.80
2019-03-04T12:22:46.937Z,948.63
2019-03-04T12:23:46.887Z,948.90
2019-03-04T12:24:46.836Z,948.87
2019-03-04T12:25:46.983Z,948.77
2019-03-04T12:26:46.737Z,948.85
2019-03-04T12:27:46.686Z,948.94